createdAt,value
2023-06-10T00:00:22.457Z,11.48
2023-06-10T00:02:50.523Z,11.75
2023-06-10T00:05:22.087Z,10.93
2023-06-10T00:07:50.697Z,10.63
2023-06-10T00:10:18.871Z,11.00
2023-06-10T00:12:48.505Z,11.60
2023-06-10T00:15:16.551Z,11.60
2023-06-10T00:17:45.184Z,10.95
2023-06-10T00:20:14.070Z,10.32
2023-06-10T00:22:42.840Z,12.10
2023-06-10T00:25:12.292Z,11.07
2023-06-10T00:27:40.581Z,11.13
2023-06-10T00:30:11.653Z,10.38
2023-06-10T00:32:40.235Z,10.35
2023-06-10T00:35:10.076Z,9.40
2023-06-10T00:37:38.989Z,11.43
2023-06-10T00:40:09.914Z,11.45
2023-06-10T00:42:37.877Z,11.43
2023-06-10T00:45:07.994Z,10.90
2023-06-10T00:47:39.465Z,10.88
2023-06-10T00:50:08.824Z,11.63
2023-06-10T00:52:37.805Z,11.50
2023-06-10T00:55:06.871Z,11.73
2023-06-10T00:57:35.407Z,11.73
2023-06-10T01:00:08.574Z,11.50
2023-06-10T01:02:37.242Z,11.43
2023-06-10T01:05:08.001Z,11.10
2023-06-10T01:07:40.833Z,11.60
2023-06-10T01:10:14.451Z,10.63
2023-06-10T01:12:50.015Z,11.05
2023-06-10T01:15:19.323Z,11.68
2023-06-10T01:17:59.417Z,11.50
2023-06-10T01:20:30.034Z,11.18
2023-06-10T01:23:01.244Z,10.07
2023-06-10T01:25:30.512Z,10.95
2023-06-10T01:28:06.967Z,11.82
2023-06-10T01:30:42.707Z,11.32
2023-06-10T01:33:16.442Z,10.60
2023-06-10T01:35:46.180Z,11.38
2023-06-10T01:38:18.042Z,10.75
2023-06-10T01:40:47.182Z,11.25
2023-06-10T01:43:15.970Z,11.88
2023-06-10T01:45:43.937Z,10.75
2023-06-10T01:48:12.038Z,12.25
2023-06-10T01:50:40.608Z,12.30
2023-06-10T01:53:08.630Z,11.20
2023-06-10T01:55:38.351Z,11.55
2023-06-10T01:58:06.426Z,11.90
2023-06-10T02:00:34.850Z,11.07
2023-06-10T02:03:03.232Z,12.07
2023-06-10T02:05:31.470Z,10.80
2023-06-10T02:07:59.524Z,11.20
2023-06-10T02:10:27.581Z,12.18
2023-06-10T02:12:57.149Z,11.77
2023-06-10T02:15:25.815Z,10.27
2023-06-10T02:17:55.725Z,10.30
2023-06-10T02:20:24.183Z,10.50
2023-06-10T02:22:52.084Z,9.35
2023-06-10T02:25:19.922Z,10.68
2023-06-10T02:27:48.179Z,9.95
2023-06-10T02:30:17.703Z,10.23
2023-06-10T02:32:49.368Z,9.88
2023-06-10T02:35:19.577Z,11.48
2023-06-10T02:37:47.765Z,9.60
2023-06-10T02:40:16.641Z,10.25
2023-06-10T02:42:45.110Z,10.43
2023-06-10T02:45:13.587Z,9.10
2023-06-10T02:47:45.664Z,9.70
2023-06-10T02:50:14.591Z,9.55
2023-06-10T02:52:52.869Z,10.40
2023-06-10T02:55:21.651Z,10.00
2023-06-10T02:57:55.713Z,9.25
2023-06-10T03:00:24.753Z,10.75
2023-06-10T03:02:58.308Z,9.88
2023-06-10T03:05:30.966Z,9.55
2023-06-10T03:08:01.390Z,9.20
2023-06-10T03:10:30.397Z,9.30
2023-06-10T03:12:58.578Z,9.77
2023-06-10T03:15:27.128Z,9.30
2023-06-10T03:17:56.648Z,9.13
2023-06-10T03:20:26.765Z,9.25
2023-06-10T03:22:54.702Z,10.35
2023-06-10T03:25:22.809Z,9.02
2023-06-10T03:27:54.173Z,10.20
2023-06-10T03:30:22.292Z,9.70
2023-06-10T03:32:50.892Z,8.60
2023-06-10T03:35:23.452Z,8.85
2023-06-10T03:37:51.488Z,8.57
2023-06-10T03:40:19.616Z,8.20
2023-06-10T03:42:49.274Z,7.97
2023-06-10T03:45:19.768Z,8.02
2023-06-10T03:47:49.640Z,7.95
2023-06-10T03:50:23.808Z,8.80
2023-06-10T03:52:52.218Z,8.43
2023-06-10T03:55:24.438Z,8.55
2023-06-10T03:57:52.729Z,7.65
2023-06-10T04:00:22.703Z,8.23
2023-06-10T04:02:53.502Z,7.55
2023-06-10T04:05:31.329Z,7.70
2023-06-10T04:08:00.508Z,8.15
2023-06-10T04:10:28.712Z,7.10
2023-06-10T04:12:57.388Z,7.38
2023-06-10T04:15:28.842Z,7.30
2023-06-10T04:17:58.838Z,7.78
2023-06-10T04:20:28.537Z,7.40
2023-06-10T04:22:58.214Z,6.90
2023-06-10T04:25:27.477Z,7.35
2023-06-10T04:27:55.798Z,7.60
2023-06-10T04:30:24.020Z,8.25
2023-06-10T04:32:54.223Z,7.53
2023-06-10T04:35:22.842Z,7.75
2023-06-10T04:37:51.050Z,7.72
2023-06-10T04:40:20.945Z,6.55
2023-06-10T04:42:51.339Z,7.40
2023-06-10T04:45:19.950Z,7.13
2023-06-10T04:47:48.232Z,7.57
2023-06-10T04:50:16.868Z,7.10
2023-06-10T04:52:45.581Z,7.53
2023-06-10T04:55:14.596Z,6.70
2023-06-10T04:57:44.119Z,7.90
2023-06-10T05:00:13.555Z,8.13
2023-06-10T05:02:41.784Z,7.75
2023-06-10T05:05:10.454Z,7.18
2023-06-10T05:07:38.945Z,7.35
2023-06-10T05:10:08.306Z,8.18
2023-06-10T05:12:36.746Z,8.20
2023-06-10T05:15:07.089Z,6.95
2023-06-10T05:17:36.001Z,7.70
2023-06-10T05:20:04.936Z,8.10
2023-06-10T05:22:33.878Z,7.60
2023-06-10T05:25:01.876Z,8.20
2023-06-10T05:27:30.091Z,6.32
2023-06-10T05:29:58.326Z,8.45
2023-06-10T05:32:27.702Z,7.05
2023-06-10T05:34:55.931Z,6.97
2023-06-10T05:37:24.111Z,7.00
2023-06-10T05:39:52.225Z,6.82
2023-06-10T05:42:20.911Z,6.65
2023-06-10T05:44:49.361Z,6.97
2023-06-10T05:47:17.356Z,7.10
2023-06-10T05:49:49.342Z,7.78
2023-06-10T05:52:17.606Z,7.55
2023-06-10T05:54:45.892Z,6.97
2023-06-10T05:57:14.156Z,6.85
2023-06-10T05:59:42.315Z,6.55
2023-06-10T06:02:10.638Z,7.60
2023-06-10T06:04:38.885Z,6.70
2023-06-10T06:07:08.677Z,7.80
2023-06-10T06:09:36.993Z,6.80
2023-06-10T06:12:07.335Z,8.02
2023-06-10T06:14:39.542Z,7.25
2023-06-10T06:17:07.890Z,7.10
2023-06-10T06:19:36.000Z,7.38
2023-06-10T06:22:04.744Z,7.23
2023-06-10T06:24:34.342Z,7.65
2023-06-10T06:27:02.420Z,6.93
2023-06-10T06:29:31.471Z,7.05
2023-06-10T06:31:59.994Z,6.70
2023-06-10T06:34:28.185Z,7.30
2023-06-10T06:36:56.386Z,6.73
2023-06-10T06:39:26.754Z,7.20
2023-06-10T06:41:57.136Z,7.50
2023-06-10T06:44:42.249Z,7.87
2023-06-10T06:47:10.514Z,6.77
2023-06-10T06:49:38.606Z,7.87
2023-06-10T06:52:07.183Z,7.03
2023-06-10T06:54:35.301Z,8.27
2023-06-10T06:57:06.680Z,7.10
2023-06-10T06:59:34.897Z,7.20
2023-06-10T07:02:03.068Z,7.57
2023-06-10T07:04:31.384Z,7.40
2023-06-10T07:06:59.475Z,8.10
2023-06-10T07:09:27.529Z,7.33
2023-06-10T07:11:55.833Z,7.47
2023-06-10T07:14:25.247Z,7.27
2023-06-10T07:16:53.609Z,7.80
2023-06-10T07:19:21.712Z,8.23
2023-06-10T07:21:49.957Z,7.13
2023-06-10T07:24:18.128Z,7.70
2023-06-10T07:26:46.338Z,7.07
2023-06-10T07:29:14.614Z,8.30
2023-06-10T07:31:44.457Z,7.00
2023-06-10T07:34:12.808Z,8.07
2023-06-10T07:36:40.896Z,8.00
2023-06-10T07:39:09.006Z,7.17
2023-06-10T07:41:37.197Z,7.50
2023-06-10T07:44:05.426Z,7.47
2023-06-10T07:46:33.710Z,6.60
2023-06-10T07:49:03.390Z,7.20
2023-06-10T07:51:31.792Z,7.00
2023-06-10T07:53:59.785Z,6.53
2023-06-10T07:56:27.881Z,6.67
2023-06-10T07:58:56.075Z,6.33
2023-06-10T08:01:25.550Z,7.10
2023-06-10T08:03:53.891Z,5.73
2023-06-10T08:06:23.642Z,6.50
2023-06-10T08:08:52.460Z,6.50
2023-06-10T08:11:20.785Z,6.70
2023-06-10T08:13:49.296Z,7.30
2023-06-10T08:16:17.676Z,7.73
2023-06-10T08:18:45.866Z,7.83
2023-06-10T08:21:14.772Z,7.03
2023-06-10T08:23:47.248Z,7.00
2023-06-10T08:26:15.622Z,8.40
2023-06-10T08:28:44.407Z,7.63
2023-06-10T08:31:12.798Z,8.00
2023-06-10T08:33:41.227Z,7.27
2023-06-10T08:36:10.649Z,6.30
2023-06-10T08:38:39.527Z,7.40
2023-06-10T08:41:11.808Z,7.10
2023-06-10T08:43:46.186Z,7.00
2023-06-10T08:46:16.384Z,6.60
2023-06-10T08:48:46.332Z,6.60
2023-06-10T08:51:18.971Z,6.60
2023-06-10T08:53:52.658Z,6.87
2023-06-10T08:56:23.592Z,7.00
2023-06-10T08:58:52.101Z,7.23
2023-06-10T09:01:20.432Z,6.90
2023-06-10T09:03:48.657Z,7.80
2023-06-10T09:06:17.014Z,6.37
2023-06-10T09:08:45.513Z,7.40
2023-06-10T09:11:14.150Z,6.93
2023-06-10T09:13:43.744Z,6.50
2023-06-10T09:16:13.859Z,7.53
2023-06-10T09:18:42.227Z,7.80
2023-06-10T09:21:10.297Z,7.40
2023-06-10T09:23:39.626Z,6.80
2023-06-10T09:26:11.850Z,6.90
2023-06-10T09:28:41.460Z,7.53
2023-06-10T09:31:11.562Z,6.60
2023-06-10T09:33:40.918Z,6.83
2023-06-10T09:36:09.455Z,6.90
2023-06-10T09:38:38.858Z,7.30
2023-06-10T09:41:07.153Z,7.10
2023-06-10T09:43:43.138Z,7.37
2023-06-10T09:46:18.738Z,6.77
2023-06-10T09:48:48.572Z,7.53
2023-06-10T09:51:18.071Z,8.00
2023-06-10T09:53:50.240Z,7.20
2023-06-10T09:56:18.365Z,7.07
2023-06-10T09:58:47.871Z,7.70
2023-06-10T10:01:17.843Z,7.80
2023-06-10T10:03:48.135Z,7.63
2023-06-10T10:06:17.855Z,7.73
2023-06-10T10:08:46.869Z,6.33
2023-06-10T10:11:16.791Z,6.40
2023-06-10T10:13:47.619Z,7.33
2023-06-10T10:16:19.782Z,7.10
2023-06-10T10:18:54.840Z,7.37
2023-06-10T10:21:25.849Z,8.07
2023-06-10T10:23:59.153Z,6.50
2023-06-10T10:26:28.941Z,6.50
2023-06-10T10:29:10.027Z,6.70
2023-06-10T10:31:41.438Z,7.20
2023-06-10T10:34:14.520Z,6.73
2023-06-10T10:36:44.275Z,6.30
2023-06-10T10:39:13.320Z,6.63
2023-06-10T10:41:42.679Z,7.70
2023-06-10T10:44:13.037Z,6.20
2023-06-10T10:46:47.204Z,6.60
2023-06-10T10:49:17.369Z,6.50
2023-06-10T10:51:58.831Z,6.20
2023-06-10T10:54:34.795Z,6.70
2023-06-10T10:57:13.551Z,6.67
2023-06-10T10:59:53.784Z,6.53
2023-06-10T11:02:36.559Z,7.50
2023-06-10T11:05:05.455Z,6.20
2023-06-10T11:07:35.226Z,7.00
2023-06-10T11:10:04.988Z,6.90
2023-06-10T11:12:54.661Z,6.33
2023-06-10T11:15:25.636Z,7.40
2023-06-10T11:18:12.537Z,6.23
2023-06-10T11:20:48.494Z,6.33
2023-06-10T11:23:27.680Z,6.43
2023-06-10T11:26:14.030Z,6.37
2023-06-10T11:28:42.534Z,5.67
2023-06-10T11:31:20.880Z,6.00
2023-06-10T11:33:54.510Z,7.07
2023-06-10T11:36:22.881Z,6.47
2023-06-10T11:38:52.160Z,7.10
2023-06-10T11:41:20.238Z,6.20
2023-06-10T11:43:48.867Z,6.83
2023-06-10T11:46:17.442Z,6.50
2023-06-10T11:48:52.477Z,6.03
2023-06-10T11:51:20.921Z,6.80
2023-06-10T11:53:50.145Z,6.80
2023-06-10T11:56:22.336Z,6.40
2023-06-10T11:58:55.537Z,7.03
2023-06-10T12:01:28.946Z,6.70
2023-06-10T12:04:05.144Z,6.73
2023-06-10T12:06:51.863Z,6.57
2023-06-10T12:09:26.279Z,6.50
2023-06-10T12:11:59.107Z,8.03
2023-06-10T12:14:56.981Z,6.30
2023-06-10T12:17:26.396Z,6.67
2023-06-10T12:19:55.838Z,6.43
2023-06-10T12:22:24.606Z,6.20
2023-06-10T12:25:04.084Z,7.13
2023-06-10T12:27:32.894Z,7.17
2023-06-10T12:30:04.633Z,6.47
2023-06-10T12:32:42.270Z,6.13
2023-06-10T12:35:14.744Z,6.27
2023-06-10T12:37:44.097Z,6.30
2023-06-10T12:40:13.295Z,6.47
2023-06-10T12:42:43.050Z,6.17
2023-06-10T12:45:13.315Z,6.63
2023-06-10T12:47:42.667Z,5.77
2023-06-10T12:50:13.991Z,6.27
2023-06-10T12:52:43.541Z,6.60
2023-06-10T12:55:12.236Z,6.40
2023-06-10T12:57:50.090Z,6.40
2023-06-10T13:00:20.601Z,6.37
2023-06-10T13:02:49.455Z,5.60
2023-06-10T13:05:19.765Z,5.90
2023-06-10T13:07:48.457Z,5.37
2023-06-10T13:10:17.398Z,6.20
2023-06-10T13:12:49.886Z,6.03
2023-06-10T13:15:18.440Z,7.17
2023-06-10T13:17:50.290Z,7.40
2023-06-10T13:20:21.973Z,5.90
2023-06-10T13:22:50.563Z,5.80
2023-06-10T13:25:18.897Z,7.10
2023-06-10T13:27:47.175Z,5.33
2023-06-10T13:30:15.914Z,6.40
2023-06-10T13:32:44.064Z,6.10
2023-06-10T13:35:12.377Z,6.33
2023-06-10T13:37:42.051Z,5.73
2023-06-10T13:40:11.386Z,6.23
2023-06-10T13:42:39.293Z,5.50
2023-06-10T13:45:09.230Z,5.83
2023-06-10T13:47:37.654Z,5.57
2023-06-10T13:50:06.640Z,5.00
2023-06-10T13:52:34.600Z,6.13
2023-06-10T13:55:04.142Z,6.10
2023-06-10T13:57:34.772Z,4.60
2023-06-10T14:00:03.104Z,5.33
2023-06-10T14:02:33.043Z,5.03
2023-06-10T14:05:01.513Z,4.87
2023-06-10T14:07:29.599Z,4.80
2023-06-10T14:09:57.567Z,5.00
2023-06-10T14:12:26.999Z,4.83
2023-06-10T14:14:55.076Z,4.70
2023-06-10T14:17:24.334Z,5.03
2023-06-10T14:19:52.477Z,5.50
2023-06-10T14:22:20.458Z,5.20
2023-06-10T14:24:48.892Z,4.60
2023-06-10T14:27:17.342Z,5.30
2023-06-10T14:29:46.638Z,4.40
2023-06-10T14:32:15.074Z,4.30
2023-06-10T14:34:45.305Z,5.87
2023-06-10T14:37:13.428Z,4.47
2023-06-10T14:39:41.336Z,5.20
2023-06-10T14:42:09.533Z,5.10
2023-06-10T14:44:37.485Z,4.90
2023-06-10T14:47:07.458Z,5.00
2023-06-10T14:49:35.370Z,5.90
2023-06-10T14:52:03.337Z,5.50
2023-06-10T14:54:31.447Z,4.93
2023-06-10T14:56:59.467Z,4.53
2023-06-10T14:59:27.496Z,5.33
2023-06-10T15:01:55.710Z,5.57
2023-06-10T15:04:25.299Z,4.87
2023-06-10T15:06:53.454Z,5.37
2023-06-10T15:09:21.768Z,5.00
2023-06-10T15:11:49.759Z,5.07
2023-06-10T15:14:18.159Z,5.40
2023-06-10T15:16:46.285Z,5.53
2023-06-10T15:19:14.576Z,5.30
2023-06-10T15:21:45.738Z,5.50
2023-06-10T15:24:14.034Z,5.10
2023-06-10T15:26:42.109Z,5.17
2023-06-10T15:29:10.515Z,5.47
2023-06-10T15:31:38.663Z,6.13
2023-06-10T15:34:08.155Z,5.30
2023-06-10T15:36:37.507Z,5.40
2023-06-10T15:39:08.311Z,5.27
2023-06-10T15:41:36.755Z,5.27
2023-06-10T15:44:05.157Z,4.90
2023-06-10T15:46:35.315Z,4.70
2023-06-10T15:49:03.843Z,4.53
2023-06-10T15:51:32.291Z,7.30
2023-06-10T15:54:00.331Z,5.23
2023-06-10T15:56:29.930Z,6.10
2023-06-10T15:58:58.012Z,6.87
2023-06-10T16:01:26.033Z,5.80
2023-06-10T16:03:54.490Z,5.33
2023-06-10T16:06:22.620Z,6.10
2023-06-10T16:08:51.963Z,5.30
2023-06-10T16:11:19.964Z,5.03
2023-06-10T16:13:49.459Z,5.30
2023-06-10T16:16:17.672Z,5.53
2023-06-10T16:18:45.871Z,4.97
2023-06-10T16:21:13.911Z,5.57
2023-06-10T16:23:42.094Z,5.40
2023-06-10T16:26:10.393Z,5.60
2023-06-10T16:28:38.316Z,5.30
2023-06-10T16:31:08.227Z,5.00
2023-06-10T16:33:37.367Z,5.53
2023-06-10T16:36:05.684Z,5.70
2023-06-10T16:38:34.668Z,4.77
2023-06-10T16:41:02.781Z,5.50
2023-06-10T16:43:30.884Z,5.17
2023-06-10T16:45:59.191Z,4.80
2023-06-10T16:48:28.584Z,5.70
2023-06-10T16:50:56.654Z,4.60
2023-06-10T16:53:24.758Z,4.87
2023-06-10T16:55:52.846Z,5.40
2023-06-10T16:58:20.893Z,5.00
2023-06-10T17:00:50.609Z,4.90
2023-06-10T17:03:18.736Z,4.40
2023-06-10T17:05:48.330Z,5.27
2023-06-10T17:08:16.537Z,5.00
2023-06-10T17:10:45.027Z,5.67
2023-06-10T17:13:13.141Z,4.97
2023-06-10T17:15:42.029Z,5.07
2023-06-10T17:18:10.394Z,5.10
2023-06-10T17:20:38.625Z,4.87
2023-06-10T17:23:08.782Z,5.47
2023-06-10T17:25:37.963Z,5.00
2023-06-10T17:28:06.615Z,5.10
2023-06-10T17:30:34.681Z,4.50
2023-06-10T17:33:02.874Z,5.90
2023-06-10T17:35:31.099Z,5.57
2023-06-10T17:37:59.339Z,5.40
2023-06-10T17:40:28.768Z,5.30
2023-06-10T17:42:56.889Z,5.47
2023-06-10T17:45:24.974Z,5.07
2023-06-10T17:47:53.131Z,4.60
2023-06-10T17:50:21.238Z,4.57
2023-06-10T17:52:49.339Z,5.07
2023-06-10T17:55:17.614Z,5.40
2023-06-10T17:57:47.163Z,4.50
2023-06-10T18:00:16.226Z,4.10
2023-06-10T18:02:44.358Z,4.40
2023-06-10T18:05:12.988Z,4.77
2023-06-10T18:07:42.107Z,5.13
2023-06-10T18:10:11.374Z,5.17
2023-06-10T18:12:39.741Z,5.00
2023-06-10T18:15:10.602Z,5.57
2023-06-10T18:17:38.889Z,5.57
2023-06-10T18:20:08.277Z,5.00
2023-06-10T18:22:36.366Z,5.10
2023-06-10T18:25:06.233Z,4.80
2023-06-10T18:27:34.496Z,4.67
2023-06-10T18:30:02.919Z,5.13
2023-06-10T18:32:32.448Z,5.07
2023-06-10T18:35:00.731Z,5.27
2023-06-10T18:37:28.978Z,5.30
2023-06-10T18:39:57.007Z,5.60
2023-06-10T18:42:25.215Z,5.93
2023-06-10T18:44:53.303Z,6.20
2023-06-10T18:47:21.359Z,6.37
2023-06-10T18:49:52.766Z,6.00
2023-06-10T18:52:21.407Z,5.80
2023-06-10T18:54:49.453Z,5.90
2023-06-10T18:57:20.903Z,6.27
2023-06-10T18:59:53.662Z,6.00
2023-06-10T19:02:24.530Z,6.67
2023-06-10T19:05:03.355Z,5.73
2023-06-10T19:07:37.583Z,6.00
2023-06-10T19:10:11.890Z,6.27
2023-06-10T19:12:41.258Z,6.50
2023-06-10T19:15:12.913Z,6.17
2023-06-10T19:17:44.811Z,6.70
2023-06-10T19:20:16.787Z,5.87
2023-06-10T19:22:45.889Z,6.47
2023-06-10T19:25:14.743Z,6.73
2023-06-10T19:27:43.883Z,6.13
2023-06-10T19:30:15.452Z,5.77
2023-06-10T19:32:46.476Z,6.27
2023-06-10T19:35:18.497Z,6.30
2023-06-10T19:37:48.384Z,5.73
2023-06-10T19:40:17.151Z,6.80
2023-06-10T19:42:47.179Z,6.27
2023-06-10T19:45:17.137Z,6.20
2023-06-10T19:47:50.467Z,5.70
2023-06-10T19:50:24.863Z,6.00
2023-06-10T19:52:58.720Z,5.80
2023-06-10T19:55:29.885Z,6.37
2023-06-10T19:58:00.525Z,5.70
2023-06-10T20:00:32.143Z,6.40
2023-06-10T20:03:06.802Z,6.10
2023-06-10T20:05:45.062Z,7.40
2023-06-10T20:08:18.715Z,6.30
2023-06-10T20:10:55.755Z,6.50
2023-06-10T20:13:32.040Z,6.30
2023-06-10T20:16:10.134Z,6.33
2023-06-10T20:18:42.936Z,5.90
2023-06-10T20:21:15.348Z,6.27
2023-06-10T20:23:49.882Z,6.70
2023-06-10T20:26:24.832Z,6.70
2023-06-10T20:28:58.000Z,6.60
2023-06-10T20:31:33.996Z,6.70
2023-06-10T20:34:10.087Z,6.60
2023-06-10T20:36:47.552Z,6.10
2023-06-10T20:39:20.138Z,6.80
2023-06-10T20:41:53.316Z,6.07
2023-06-10T20:44:27.158Z,7.40
2023-06-10T20:47:01.042Z,6.17
2023-06-10T20:49:32.465Z,5.90
2023-06-10T20:52:06.691Z,6.63
2023-06-10T20:54:38.383Z,6.53
2023-06-10T20:57:07.888Z,6.53
2023-06-10T20:59:36.487Z,6.90
2023-06-10T21:02:05.042Z,6.20
2023-06-10T21:04:33.123Z,5.97
2023-06-10T21:07:01.279Z,5.97
2023-06-10T21:09:30.870Z,6.60
2023-06-10T21:11:59.056Z,6.13
2023-06-10T21:14:27.274Z,5.70
2023-06-10T21:16:55.560Z,5.97
2023-06-10T21:19:23.745Z,5.60
2023-06-10T21:21:51.873Z,6.23
2023-06-10T21:24:20.187Z,6.57
2023-06-10T21:26:49.956Z,6.70
2023-06-10T21:29:18.504Z,5.63
2023-06-10T21:31:46.928Z,5.90
2023-06-10T21:34:15.254Z,6.20
2023-06-10T21:36:43.382Z,6.67
2023-06-10T21:39:12.154Z,5.93
2023-06-10T21:41:40.235Z,6.63
2023-06-10T21:44:09.878Z,6.47
2023-06-10T21:46:38.735Z,6.90
2023-06-10T21:49:06.954Z,6.87
2023-06-10T21:51:35.161Z,7.47
2023-06-10T21:54:03.304Z,6.80
2023-06-10T21:56:34.165Z,5.80
2023-06-10T21:59:03.200Z,6.57
2023-06-10T22:01:36.508Z,5.77
2023-06-10T22:04:04.962Z,6.90
2023-06-10T22:06:35.276Z,7.60
2023-06-10T22:09:03.455Z,6.53
2023-06-10T22:11:31.663Z,6.47
2023-06-10T22:13:59.807Z,7.20
2023-06-10T22:16:28.283Z,6.50
2023-06-10T22:18:57.785Z,6.60
2023-06-10T22:21:26.198Z,6.37
2023-06-10T22:23:55.530Z,6.90
2023-06-10T22:26:23.884Z,6.90
2023-06-10T22:28:51.984Z,6.00
2023-06-10T22:31:26.115Z,6.37
2023-06-10T22:33:57.836Z,6.10
2023-06-10T22:36:26.111Z,6.60
2023-06-10T22:38:54.242Z,7.37
2023-06-10T22:41:22.743Z,6.83
2023-06-10T22:43:50.897Z,6.57
2023-06-10T22:46:19.213Z,7.00
2023-06-10T22:48:47.486Z,6.40
2023-06-10T22:51:17.210Z,7.33
2023-06-10T22:53:46.046Z,7.30
2023-06-10T22:56:14.184Z,7.00
2023-06-10T22:58:42.172Z,6.60
2023-06-10T23:01:11.438Z,6.90
2023-06-10T23:03:39.635Z,7.10
2023-06-10T23:06:07.665Z,6.13
2023-06-10T23:08:37.250Z,7.10
2023-06-10T23:11:05.234Z,6.83
2023-06-10T23:13:33.437Z,6.23
2023-06-10T23:16:01.421Z,7.07
2023-06-10T23:18:29.619Z,7.23
2023-06-10T23:20:59.051Z,6.50
2023-06-10T23:23:34.251Z,6.50
2023-06-10T23:26:04.065Z,6.70
2023-06-10T23:28:32.187Z,7.97
2023-06-10T23:31:00.607Z,6.70
2023-06-10T23:33:29.335Z,6.83
2023-06-10T23:35:57.435Z,7.53
2023-06-10T23:38:25.443Z,7.50
2023-06-10T23:40:53.729Z,6.33
2023-06-10T23:43:23.241Z,7.43
2023-06-10T23:45:51.283Z,6.63
2023-06-10T23:48:19.408Z,7.87
2023-06-10T23:50:47.392Z,7.60
2023-06-10T23:53:15.593Z,7.00
2023-06-10T23:55:43.630Z,7.17
2023-06-10T23:58:12.156Z,7.87
